sensor_id;sensor_type;location;lat;lon;timestamp;pressure;altitude;pressure_sealevel;temperature;humidity
64076;BME280;50327;51.328;12.324;2023-02-11T00:00:31;53066.63;;;-144.47;84.61
64076;BME280;50327;51.328;12.324;2023-02-11T00:02:56;53062.66;;;-144.47;84.58
64076;BME280;50327;51.328;12.324;2023-02-11T00:05:21;53102.38;;;-144.47;84.54
64076;BME280;50327;51.328;12.324;2023-02-11T00:07:47;53048.75;;;-144.47;84.56
64076;BME280;50327;51.328;12.324;2023-02-11T00:10:12;53082.53;;;-144.47;84.23
64076;BME280;50327;51.328;12.324;2023-02-11T00:12:37;53072.59;;;-144.47;83.92
64076;BME280;50327;51.328;12.324;2023-02-11T00:15:04;53074.56;;;-144.47;83.86
64076;BME280;50327;51.328;12.324;2023-02-11T00:17:31;53076.56;;;-144.47;83.62
64076;BME280;50327;51.328;12.324;2023-02-11T00:19:56;53052.72;;;-144.47;83.40
64076;BME280;50327;51.328;12.324;2023-02-11T00:22:21;53054.72;;;-144.47;83.73
64076;BME280;50327;51.328;12.324;2023-02-11T00:24:47;53088.47;;;-144.47;83.66
64076;BME280;50327;51.328;12.324;2023-02-11T00:27:12;53082.53;;;-144.47;83.95
64076;BME280;50327;51.328;12.324;2023-02-11T00:29:38;53064.66;;;-144.47;83.95
64076;BME280;50327;51.328;12.324;2023-02-11T00:32:03;53064.66;;;-144.47;83.82
64076;BME280;50327;51.328;12.324;2023-02-11T00:34:33;53086.50;;;-144.47;83.84
64076;BME280;50327;51.328;12.324;2023-02-11T00:36:59;53104.38;;;-144.47;83.64
64076;BME280;50327;51.328;12.324;2023-02-11T00:39:24;53094.44;;;-144.47;83.47
64076;BME280;50327;51.328;12.324;2023-02-11T00:41:50;53084.50;;;-144.47;83.47
64076;BME280;50327;51.328;12.324;2023-02-11T00:44:15;53046.75;;;-144.47;83.53
64076;BME280;50327;51.328;12.324;2023-02-11T00:46:41;53092.44;;;-144.47;83.64
64076;BME280;50327;51.328;12.324;2023-02-11T00:49:06;53048.75;;;-144.47;83.80
64076;BME280;50327;51.328;12.324;2023-02-11T00:51:32;53084.50;;;-144.47;83.96
64076;BME280;50327;51.328;12.324;2023-02-11T00:53:57;53082.53;;;-144.47;84.20
64076;BME280;50327;51.328;12.324;2023-02-11T00:56:23;53084.50;;;-144.47;84.04
64076;BME280;50327;51.328;12.324;2023-02-11T00:58:48;53078.53;;;-144.47;84.08
64076;BME280;50327;51.328;12.324;2023-02-11T01:01:14;53102.38;;;-144.47;84.11
64076;BME280;50327;51.328;12.324;2023-02-11T01:03:39;53094.44;;;-144.47;84.34
64076;BME280;50327;51.328;12.324;2023-02-11T01:06:06;53060.66;;;-144.47;84.73
64076;BME280;50327;51.328;12.324;2023-02-11T01:08:32;53074.56;;;-144.47;85.08
64076;BME280;50327;51.328;12.324;2023-02-11T01:11:04;53078.53;;;-144.47;85.46
64076;BME280;50327;51.328;12.324;2023-02-11T01:13:31;53106.34;;;-144.47;85.61
64076;BME280;50327;51.328;12.324;2023-02-11T01:15:57;53086.50;;;-144.47;85.69
64076;BME280;50327;51.328;12.324;2023-02-11T01:18:23;53090.47;;;-144.47;85.79
64076;BME280;50327;51.328;12.324;2023-02-11T01:20:50;53094.44;;;-144.47;85.80
64076;BME280;50327;51.328;12.324;2023-02-11T01:23:15;53116.28;;;-144.47;85.75
64076;BME280;50327;51.328;12.324;2023-02-11T01:25:41;53092.44;;;-144.47;85.42
64076;BME280;50327;51.328;12.324;2023-02-11T01:28:15;53106.34;;;-144.47;85.07
64076;BME280;50327;51.328;12.324;2023-02-11T01:30:41;53064.66;;;-144.47;84.66
64076;BME280;50327;51.328;12.324;2023-02-11T01:33:06;53076.56;;;-144.47;84.05
64076;BME280;50327;51.328;12.324;2023-02-11T01:35:32;53076.56;;;-144.47;83.89
64076;BME280;50327;51.328;12.324;2023-02-11T01:37:57;53070.59;;;-144.47;83.60
64076;BME280;50327;51.328;12.324;2023-02-11T01:40:22;53064.66;;;-144.47;83.11
64076;BME280;50327;51.328;12.324;2023-02-11T01:42:48;53080.53;;;-144.47;83.15
64076;BME280;50327;51.328;12.324;2023-02-11T01:48:14;53040.81;;;-144.47;83.04
64076;BME280;50327;51.328;12.324;2023-02-11T01:50:41;53058.69;;;-144.47;83.04
64076;BME280;50327;51.328;12.324;2023-02-11T01:53:07;53052.72;;;-144.47;83.23
64076;BME280;50327;51.328;12.324;2023-02-11T01:55:53;53068.63;;;-144.47;83.40
64076;BME280;50327;51.328;12.324;2023-02-11T01:58:40;53058.69;;;-144.47;83.25
64076;BME280;50327;51.328;12.324;2023-02-11T02:01:10;53046.75;;;-144.47;83.21
64076;BME280;50327;51.328;12.324;2023-02-11T02:03:39;53080.53;;;-144.47;83.23
64076;BME280;50327;51.328;12.324;2023-02-11T02:06:33;53052.72;;;-144.47;83.08
64076;BME280;50327;51.328;12.324;2023-02-11T02:09:04;53078.53;;;-144.47;83.19
64076;BME280;50327;51.328;12.324;2023-02-11T02:11:31;53052.72;;;-144.47;83.31
64076;BME280;50327;51.328;12.324;2023-02-11T02:13:56;53078.53;;;-144.47;82.99
64076;BME280;50327;51.328;12.324;2023-02-11T02:16:28;53054.72;;;-144.47;82.92
64076;BME280;50327;51.328;12.324;2023-02-11T02:27:31;53070.59;;;-144.47;82.81
64076;BME280;50327;51.328;12.324;2023-02-11T02:35:45;53054.72;;;-144.47;82.43
64076;BME280;50327;51.328;12.324;2023-02-11T02:38:15;53054.72;;;-144.47;82.57
64076;BME280;50327;51.328;12.324;2023-02-11T02:41:07;53066.63;;;-144.47;82.63
64076;BME280;50327;51.328;12.324;2023-02-11T02:43:33;53066.63;;;-144.47;82.50
64076;BME280;50327;51.328;12.324;2023-02-11T02:46:14;53052.72;;;-144.47;82.56
64076;BME280;50327;51.328;12.324;2023-02-11T02:48:41;53022.94;;;-144.47;82.50
64076;BME280;50327;51.328;12.324;2023-02-11T03:02:10;53070.59;;;-144.47;82.68
64076;BME280;50327;51.328;12.324;2023-02-11T03:05:00;53042.78;;;-144.47;82.74
64076;BME280;50327;51.328;12.324;2023-02-11T03:07:38;52987.19;;;-144.47;82.51
64076;BME280;50327;51.328;12.324;2023-02-11T03:10:18;53048.75;;;-144.47;82.40
64076;BME280;50327;51.328;12.324;2023-02-11T03:12:47;53064.66;;;-144.47;82.34
64076;BME280;50327;51.328;12.324;2023-02-11T03:15:15;53018.97;;;-144.47;82.34
64076;BME280;50327;51.328;12.324;2023-02-11T03:17:44;53028.88;;;-144.47;82.00
64076;BME280;50327;51.328;12.324;2023-02-11T03:20:13;53054.72;;;-144.47;81.84
64076;BME280;50327;51.328;12.324;2023-02-11T03:22:52;53066.63;;;-144.47;81.78
64076;BME280;50327;51.328;12.324;2023-02-11T03:25:21;53032.88;;;-144.47;81.71
64076;BME280;50327;51.328;12.324;2023-02-11T03:28:06;53026.91;;;-144.47;81.48
64076;BME280;50327;51.328;12.324;2023-02-11T03:30:41;53028.88;;;-144.47;81.38
64076;BME280;50327;51.328;12.324;2023-02-11T03:33:28;53013.00;;;-144.47;81.50
64076;BME280;50327;51.328;12.324;2023-02-11T03:36:09;53028.88;;;-144.47;81.39
64076;BME280;50327;51.328;12.324;2023-02-11T03:38:46;53032.88;;;-144.47;81.31
64076;BME280;50327;51.328;12.324;2023-02-11T03:41:16;53026.91;;;-144.47;81.50
64076;BME280;50327;51.328;12.324;2023-02-11T03:43:46;53026.91;;;-144.47;81.27
64076;BME280;50327;51.328;12.324;2023-02-11T03:46:16;53018.97;;;-144.47;81.48
64076;BME280;50327;51.328;12.324;2023-02-11T03:48:47;53046.75;;;-144.47;81.53
64076;BME280;50327;51.328;12.324;2023-02-11T03:51:14;53044.78;;;-144.47;81.39
64076;BME280;50327;51.328;12.324;2023-02-11T03:53:42;53042.78;;;-144.47;81.28
64076;BME280;50327;51.328;12.324;2023-02-11T03:56:13;53018.97;;;-144.47;81.35
64076;BME280;50327;51.328;12.324;2023-02-11T03:58:39;53011.00;;;-144.47;81.52
64076;BME280;50327;51.328;12.324;2023-02-11T04:01:06;53032.88;;;-144.47;81.35
64076;BME280;50327;51.328;12.324;2023-02-11T04:03:33;53020.94;;;-144.47;81.40
64076;BME280;50327;51.328;12.324;2023-02-11T04:05:59;53030.88;;;-144.47;81.36
64076;BME280;50327;51.328;12.324;2023-02-11T04:08:24;53018.97;;;-144.47;81.39
64076;BME280;50327;51.328;12.324;2023-02-11T04:10:50;53005.06;;;-144.47;81.06
64076;BME280;50327;51.328;12.324;2023-02-11T04:13:15;53044.78;;;-144.47;81.09
64076;BME280;50327;51.328;12.324;2023-02-11T04:15:40;53026.91;;;-144.47;81.14
64076;BME280;50327;51.328;12.324;2023-02-11T04:18:06;53003.06;;;-144.47;81.03
64076;BME280;50327;51.328;12.324;2023-02-11T04:20:31;53011.00;;;-144.47;80.88
64076;BME280;50327;51.328;12.324;2023-02-11T04:22:57;53030.88;;;-144.47;80.83
64076;BME280;50327;51.328;12.324;2023-02-11T04:25:22;53015.00;;;-144.47;80.73
64076;BME280;50327;51.328;12.324;2023-02-11T04:27:47;53024.91;;;-144.47;80.85
64076;BME280;50327;51.328;12.324;2023-02-11T04:30:13;53022.94;;;-144.47;80.84
64076;BME280;50327;51.328;12.324;2023-02-11T04:32:38;53034.84;;;-144.47;80.43
64076;BME280;50327;51.328;12.324;2023-02-11T04:35:05;53034.84;;;-144.47;80.13
64076;BME280;50327;51.328;12.324;2023-02-11T04:37:30;53050.75;;;-144.47;80.26
64076;BME280;50327;51.328;12.324;2023-02-11T04:39:56;53026.91;;;-144.47;80.29
64076;BME280;50327;51.328;12.324;2023-02-11T04:42:21;53020.94;;;-144.47;80.01
64076;BME280;50327;51.328;12.324;2023-02-11T04:44:46;53011.00;;;-144.47;80.27
64076;BME280;50327;51.328;12.324;2023-02-11T04:47:12;53036.84;;;-144.47;79.99
64076;BME280;50327;51.328;12.324;2023-02-11T04:49:39;53011.00;;;-144.47;80.23
64076;BME280;50327;51.328;12.324;2023-02-11T04:52:05;53046.75;;;-144.47;80.00
64076;BME280;50327;51.328;12.324;2023-02-11T04:54:30;53016.97;;;-144.47;80.23
64076;BME280;50327;51.328;12.324;2023-02-11T04:56:55;53022.94;;;-144.47;80.16
64076;BME280;50327;51.328;12.324;2023-02-11T04:59:21;53016.97;;;-144.47;80.11
64076;BME280;50327;51.328;12.324;2023-02-11T05:01:46;53015.00;;;-144.47;80.10
64076;BME280;50327;51.328;12.324;2023-02-11T05:04:11;53046.75;;;-144.47;80.03
64076;BME280;50327;51.328;12.324;2023-02-11T05:06:38;53032.88;;;-144.47;79.96
64076;BME280;50327;51.328;12.324;2023-02-11T05:09:04;53015.00;;;-144.47;79.98
64076;BME280;50327;51.328;12.324;2023-02-11T05:11:29;53011.00;;;-144.47;79.91
64076;BME280;50327;51.328;12.324;2023-02-11T05:13:54;53011.00;;;-144.47;80.03
64076;BME280;50327;51.328;12.324;2023-02-11T05:16:20;52985.19;;;-144.47;80.13
64076;BME280;50327;51.328;12.324;2023-02-11T05:18:45;53018.97;;;-144.47;80.23
64076;BME280;50327;51.328;12.324;2023-02-11T05:21:13;53018.97;;;-144.47;80.36
64076;BME280;50327;51.328;12.324;2023-02-11T05:23:39;53032.88;;;-144.47;80.27
64076;BME280;50327;51.328;12.324;2023-02-11T05:26:05;53005.06;;;-144.47;80.37
64076;BME280;50327;51.328;12.324;2023-02-11T05:28:31;53042.78;;;-144.47;80.34
64076;BME280;50327;51.328;12.324;2023-02-11T05:30:57;52993.13;;;-144.47;80.68
64076;BME280;50327;51.328;12.324;2023-02-11T05:33:24;53022.94;;;-144.47;80.82
64076;BME280;50327;51.328;12.324;2023-02-11T05:35:49;53024.91;;;-144.47;80.98
64076;BME280;50327;51.328;12.324;2023-02-11T05:38:15;53007.03;;;-144.47;81.23
64076;BME280;50327;51.328;12.324;2023-02-11T05:40:40;53016.97;;;-144.47;81.30
64076;BME280;50327;51.328;12.324;2023-02-11T05:43:06;53026.91;;;-144.47;81.20
64076;BME280;50327;51.328;12.324;2023-02-11T05:45:32;53009.03;;;-144.47;81.35
64076;BME280;50327;51.328;12.324;2023-02-11T05:47:57;53018.97;;;-144.47;81.53
64076;BME280;50327;51.328;12.324;2023-02-11T05:50:23;53038.81;;;-144.47;81.82
64076;BME280;50327;51.328;12.324;2023-02-11T05:52:48;53018.97;;;-144.47;81.83
64076;BME280;50327;51.328;12.324;2023-02-11T05:55:14;53015.00;;;-144.47;82.05
64076;BME280;50327;51.328;12.324;2023-02-11T05:57:39;53015.00;;;-144.47;82.28
64076;BME280;50327;51.328;12.324;2023-02-11T06:00:06;53034.84;;;-144.47;82.27
64076;BME280;50327;51.328;12.324;2023-02-11T06:02:32;52997.09;;;-144.47;82.46
64076;BME280;50327;51.328;12.324;2023-02-11T06:04:57;53032.88;;;-144.47;82.59
64076;BME280;50327;51.328;12.324;2023-02-11T06:07:23;53026.91;;;-144.47;82.73
64076;BME280;50327;51.328;12.324;2023-02-11T06:09:48;53024.91;;;-144.47;82.61
64076;BME280;50327;51.328;12.324;2023-02-11T06:12:13;53022.94;;;-144.47;82.81
64076;BME280;50327;51.328;12.324;2023-02-11T06:14:39;53022.94;;;-144.47;83.12
64076;BME280;50327;51.328;12.324;2023-02-11T06:17:04;53016.97;;;-144.47;83.07
64076;BME280;50327;51.328;12.324;2023-02-11T06:19:30;53015.00;;;-144.47;83.12
64076;BME280;50327;51.328;12.324;2023-02-11T06:21:56;53022.94;;;-144.47;83.09
64076;BME280;50327;51.328;12.324;2023-02-11T06:24:21;52987.19;;;-144.47;83.31
64076;BME280;50327;51.328;12.324;2023-02-11T06:26:47;53013.00;;;-144.47;83.20
64076;BME280;50327;51.328;12.324;2023-02-11T06:29:12;53022.94;;;-144.47;83.41
64076;BME280;50327;51.328;12.324;2023-02-11T06:31:38;53022.94;;;-144.47;83.46
64076;BME280;50327;51.328;12.324;2023-02-11T06:34:03;52995.13;;;-144.47;83.36
64076;BME280;50327;51.328;12.324;2023-02-11T06:36:29;53028.88;;;-144.47;83.43
64076;BME280;50327;51.328;12.324;2023-02-11T06:38:54;53026.91;;;-144.47;83.39
64076;BME280;50327;51.328;12.324;2023-02-11T06:41:20;53030.88;;;-144.47;83.31
64076;BME280;50327;51.328;12.324;2023-02-11T06:43:45;53020.94;;;-144.47;83.29
64076;BME280;50327;51.328;12.324;2023-02-11T06:46:11;53020.94;;;-144.47;83.19
64076;BME280;50327;51.328;12.324;2023-02-11T06:48:37;52991.16;;;-144.47;83.38
64076;BME280;50327;51.328;12.324;2023-02-11T06:51:05;53013.00;;;-144.47;83.18
64076;BME280;50327;51.328;12.324;2023-02-11T06:53:34;53018.97;;;-144.47;83.24
64076;BME280;50327;51.328;12.324;2023-02-11T06:56:04;52997.09;;;-144.47;83.26
64076;BME280;50327;51.328;12.324;2023-02-11T06:58:30;53018.97;;;-144.47;83.38
64076;BME280;50327;51.328;12.324;2023-02-11T07:00:56;52991.16;;;-144.47;83.46
64076;BME280;50327;51.328;12.324;2023-02-11T07:03:22;52989.16;;;-144.47;83.53
64076;BME280;50327;51.328;12.324;2023-02-11T07:05:47;53018.97;;;-144.47;83.34
64076;BME280;50327;51.328;12.324;2023-02-11T07:08:12;53022.94;;;-144.47;83.56
64076;BME280;50327;51.328;12.324;2023-02-11T07:10:38;53018.97;;;-144.47;83.65
64076;BME280;50327;51.328;12.324;2023-02-11T07:13:03;53011.00;;;-144.47;83.54
64076;BME280;50327;51.328;12.324;2023-02-11T07:15:29;53007.03;;;-144.47;83.59
64076;BME280;50327;51.328;12.324;2023-02-11T07:17:54;53011.00;;;-144.47;83.62
64076;BME280;50327;51.328;12.324;2023-02-11T07:20:19;52997.09;;;-144.47;83.54
64076;BME280;50327;51.328;12.324;2023-02-11T07:22:45;52983.22;;;-144.47;83.46
64076;BME280;50327;51.328;12.324;2023-02-11T07:25:10;53009.03;;;-144.47;83.26
64076;BME280;50327;51.328;12.324;2023-02-11T07:27:36;53020.94;;;-144.47;83.47
64076;BME280;50327;51.328;12.324;2023-02-11T07:30:02;52993.13;;;-144.47;83.48
64076;BME280;50327;51.328;12.324;2023-02-11T07:32:27;52987.19;;;-144.47;83.17
64076;BME280;50327;51.328;12.324;2023-02-11T07:34:52;53022.94;;;-144.47;83.37
64076;BME280;50327;51.328;12.324;2023-02-11T07:37:18;53007.03;;;-144.47;83.26
64076;BME280;50327;51.328;12.324;2023-02-11T07:39:44;53005.06;;;-144.47;83.21
64076;BME280;50327;51.328;12.324;2023-02-11T07:42:09;53016.97;;;-144.47;83.24
64076;BME280;50327;51.328;12.324;2023-02-11T07:44:34;52993.13;;;-144.47;83.40
64076;BME280;50327;51.328;12.324;2023-02-11T07:47:01;52997.09;;;-144.47;83.40
64076;BME280;50327;51.328;12.324;2023-02-11T07:49:26;53018.97;;;-144.47;83.24
64076;BME280;50327;51.328;12.324;2023-02-11T07:51:52;53024.91;;;-144.47;83.44
64076;BME280;50327;51.328;12.324;2023-02-11T07:54:17;52971.28;;;-144.47;83.44
64076;BME280;50327;51.328;12.324;2023-02-11T07:56:43;53016.97;;;-144.47;83.37
64076;BME280;50327;51.328;12.324;2023-02-11T07:59:10;52997.09;;;-144.47;83.34
64076;BME280;50327;51.328;12.324;2023-02-11T08:01:35;52999.09;;;-144.47;83.49
64076;BME280;50327;51.328;12.324;2023-02-11T08:04:01;53020.94;;;-144.47;83.43
64076;BME280;50327;51.328;12.324;2023-02-11T08:06:30;53007.03;;;-144.47;83.37
64076;BME280;50327;51.328;12.324;2023-02-11T08:08:56;53013.00;;;-144.47;83.34
64076;BME280;50327;51.328;12.324;2023-02-11T08:11:26;52983.22;;;-144.47;83.39
64076;BME280;50327;51.328;12.324;2023-02-11T08:13:53;53036.84;;;-144.47;83.25
64076;BME280;50327;51.328;12.324;2023-02-11T08:16:31;52987.19;;;-144.47;83.44
64076;BME280;50327;51.328;12.324;2023-02-11T08:18:59;53003.06;;;-144.47;83.38
64076;BME280;50327;51.328;12.324;2023-02-11T08:21:25;52979.22;;;-144.47;83.45
64076;BME280;50327;51.328;12.324;2023-02-11T08:23:52;52997.09;;;-144.47;83.15
64076;BME280;50327;51.328;12.324;2023-02-11T08:26:21;52987.19;;;-144.47;83.29
64076;BME280;50327;51.328;12.324;2023-02-11T08:28:50;52967.31;;;-144.47;83.48
64076;BME280;50327;51.328;12.324;2023-02-11T08:31:21;53005.06;;;-144.47;83.32
64076;BME280;50327;51.328;12.324;2023-02-11T08:33:47;53016.97;;;-144.47;83.49
64076;BME280;50327;51.328;12.324;2023-02-11T08:36:23;52991.16;;;-144.47;83.09
64076;BME280;50327;51.328;12.324;2023-02-11T08:38:49;52985.19;;;-144.47;82.77
64076;BME280;50327;51.328;12.324;2023-02-11T08:41:15;53018.97;;;-144.47;82.82
64076;BME280;50327;51.328;12.324;2023-02-11T08:43:42;52997.09;;;-144.47;82.62
64076;BME280;50327;51.328;12.324;2023-02-11T08:46:11;52999.09;;;-144.47;82.81
64076;BME280;50327;51.328;12.324;2023-02-11T08:48:37;53009.03;;;-144.47;82.53
64076;BME280;50327;51.328;12.324;2023-02-11T08:51:12;52995.13;;;-144.47;82.51
64076;BME280;50327;51.328;12.324;2023-02-11T08:53:38;52985.19;;;-144.47;82.40
64076;BME280;50327;51.328;12.324;2023-02-11T08:56:03;52989.16;;;-144.47;82.42
64076;BME280;50327;51.328;12.324;2023-02-11T08:58:29;52979.22;;;-144.47;82.90
64076;BME280;50327;51.328;12.324;2023-02-11T09:00:54;52979.22;;;-144.47;83.34
64076;BME280;50327;51.328;12.324;2023-02-11T09:03:20;52987.19;;;-144.47;83.42
64076;BME280;50327;51.328;12.324;2023-02-11T09:05:47;52979.22;;;-144.47;83.38
64076;BME280;50327;51.328;12.324;2023-02-11T09:08:14;53003.06;;;-144.47;83.24
64076;BME280;50327;51.328;12.324;2023-02-11T09:10:40;52965.34;;;-144.47;83.06
64076;BME280;50327;51.328;12.324;2023-02-11T09:13:06;52979.22;;;-144.47;83.48
64076;BME280;50327;51.328;12.324;2023-02-11T09:15:32;52957.38;;;-144.47;83.73
64076;BME280;50327;51.328;12.324;2023-02-11T09:17:57;52981.22;;;-144.47;83.59
64076;BME280;50327;51.328;12.324;2023-02-11T09:20:24;52993.13;;;-144.47;83.99
64076;BME280;50327;51.328;12.324;2023-02-11T09:22:51;52997.09;;;-144.47;84.04
64076;BME280;50327;51.328;12.324;2023-02-11T09:25:16;52993.13;;;-144.47;84.50
64076;BME280;50327;51.328;12.324;2023-02-11T09:27:41;52991.16;;;-144.47;84.33
64076;BME280;50327;51.328;12.324;2023-02-11T09:30:07;52997.09;;;-144.47;84.34
64076;BME280;50327;51.328;12.324;2023-02-11T09:32:33;52975.25;;;-144.47;84.42
64076;BME280;50327;51.328;12.324;2023-02-11T09:34:58;52989.16;;;-144.47;84.63
64076;BME280;50327;51.328;12.324;2023-02-11T09:37:23;52995.13;;;-144.47;84.85
64076;BME280;50327;51.328;12.324;2023-02-11T09:39:49;53015.00;;;-144.47;84.93
64076;BME280;50327;51.328;12.324;2023-02-11T09:45:01;52955.41;;;-144.47;85.04
64076;BME280;50327;51.328;12.324;2023-02-11T09:50:17;53003.06;;;-144.47;84.64
64076;BME280;50327;51.328;12.324;2023-02-11T09:57:58;52983.22;;;-144.47;84.04
64076;BME280;50327;51.328;12.324;2023-02-11T10:00:30;52969.31;;;-144.47;84.17
64076;BME280;50327;51.328;12.324;2023-02-11T10:03:21;52963.34;;;-144.47;84.19
64076;BME280;50327;51.328;12.324;2023-02-11T10:08:37;52971.28;;;-144.47;83.75
64076;BME280;50327;51.328;12.324;2023-02-11T10:11:34;52961.34;;;-144.47;83.70
64076;BME280;50327;51.328;12.324;2023-02-11T10:22:32;52953.41;;;-144.47;83.67
64076;BME280;50327;51.328;12.324;2023-02-11T10:24:59;52935.53;;;-144.47;83.46
64076;BME280;50327;51.328;12.324;2023-02-11T10:27:32;52971.28;;;-144.47;83.48
64076;BME280;50327;51.328;12.324;2023-02-11T10:30:05;52973.28;;;-144.47;83.74
64076;BME280;50327;51.328;12.324;2023-02-11T10:35:23;52961.34;;;-144.47;83.54
64076;BME280;50327;51.328;12.324;2023-02-11T10:37:50;52975.25;;;-144.47;83.31
64076;BME280;50327;51.328;12.324;2023-02-11T10:40:18;52949.44;;;-144.47;83.03
64076;BME280;50327;51.328;12.324;2023-02-11T10:42:52;52967.31;;;-144.47;83.17
64076;BME280;50327;51.328;12.324;2023-02-11T10:45:24;52973.28;;;-144.47;83.24
64076;BME280;50327;51.328;12.324;2023-02-11T10:47:51;52967.31;;;-144.47;83.22
64076;BME280;50327;51.328;12.324;2023-02-11T10:50:23;52967.31;;;-144.47;83.10
64076;BME280;50327;51.328;12.324;2023-02-11T10:52:49;52959.38;;;-144.47;83.51
64076;BME280;50327;51.328;12.324;2023-02-11T10:55:19;52935.53;;;-144.47;83.78
64076;BME280;50327;51.328;12.324;2023-02-11T10:57:57;52967.31;;;-144.47;83.40
64076;BME280;50327;51.328;12.324;2023-02-11T11:00:35;52957.38;;;-144.47;83.41
64076;BME280;50327;51.328;12.324;2023-02-11T11:03:03;52983.22;;;-144.47;83.09
64076;BME280;50327;51.328;12.324;2023-02-11T11:05:33;52945.47;;;-144.47;83.42
64076;BME280;50327;51.328;12.324;2023-02-11T11:08:02;52979.22;;;-144.47;83.32
64076;BME280;50327;51.328;12.324;2023-02-11T11:10:35;52955.41;;;-144.47;83.32
64076;BME280;50327;51.328;12.324;2023-02-11T11:13:01;52957.38;;;-144.47;83.44
64076;BME280;50327;51.328;12.324;2023-02-11T11:15:29;52993.13;;;-144.47;83.76
64076;BME280;50327;51.328;12.324;2023-02-11T11:20:32;52959.38;;;-144.47;82.80
64076;BME280;50327;51.328;12.324;2023-02-11T11:23:26;52957.38;;;-144.47;83.17
64076;BME280;50327;51.328;12.324;2023-02-11T11:26:03;52963.34;;;-144.47;83.21
64076;BME280;50327;51.328;12.324;2023-02-11T11:28:34;52947.47;;;-144.47;83.12
64076;BME280;50327;51.328;12.324;2023-02-11T11:31:03;52963.34;;;-144.47;83.48
64076;BME280;50327;51.328;12.324;2023-02-11T11:33:32;52959.38;;;-144.47;83.37
64076;BME280;50327;51.328;12.324;2023-02-11T11:36:01;52953.41;;;-144.47;83.34
64076;BME280;50327;51.328;12.324;2023-02-11T11:38:29;52965.34;;;-144.47;83.45
64076;BME280;50327;51.328;12.324;2023-02-11T11:41:19;52971.28;;;-144.47;83.70
64076;BME280;50327;51.328;12.324;2023-02-11T11:43:58;52957.38;;;-144.47;83.48
64076;BME280;50327;51.328;12.324;2023-02-11T11:46:27;52971.28;;;-144.47;83.72
64076;BME280;50327;51.328;12.324;2023-02-11T11:49:00;52949.44;;;-144.47;83.61
64076;BME280;50327;51.328;12.324;2023-02-11T11:51:28;52949.44;;;-144.47;83.45
64076;BME280;50327;51.328;12.324;2023-02-11T11:54:03;52969.31;;;-144.47;83.52
64076;BME280;50327;51.328;12.324;2023-02-11T11:56:39;52963.34;;;-144.47;83.57
64076;BME280;50327;51.328;12.324;2023-02-11T11:59:10;52939.50;;;-144.47;83.59
64076;BME280;50327;51.328;12.324;2023-02-11T12:20:37;52967.31;;;-144.47;83.77
64076;BME280;50327;51.328;12.324;2023-02-11T12:26:23;52899.78;;;-144.47;83.57
64076;BME280;50327;51.328;12.324;2023-02-11T12:29:04;52943.47;;;-144.47;83.32
64076;BME280;50327;51.328;12.324;2023-02-11T12:56:56;52951.44;;;-144.47;84.11
64076;BME280;50327;51.328;12.324;2023-02-11T13:02:03;52939.50;;;-144.47;84.16
64076;BME280;50327;51.328;12.324;2023-02-11T13:04:37;52923.63;;;-144.47;84.21
64076;BME280;50327;51.328;12.324;2023-02-11T13:07:10;52967.31;;;-144.47;84.27
64076;BME280;50327;51.328;12.324;2023-02-11T13:09:43;52947.47;;;-144.47;84.23
64076;BME280;50327;51.328;12.324;2023-02-11T13:12:11;52943.47;;;-144.47;84.17
64076;BME280;50327;51.328;12.324;2023-02-11T13:14:58;52953.41;;;-144.47;84.03
64076;BME280;50327;51.328;12.324;2023-02-11T13:17:39;52935.53;;;-144.47;84.06
64076;BME280;50327;51.328;12.324;2023-02-11T13:26:19;52971.28;;;-144.47;85.03
64076;BME280;50327;51.328;12.324;2023-02-11T13:31:15;52975.25;;;-144.47;85.23
64076;BME280;50327;51.328;12.324;2023-02-11T13:33:44;52967.31;;;-144.47;85.45
64076;BME280;50327;51.328;12.324;2023-02-11T13:36:15;52931.56;;;-144.47;85.28
64076;BME280;50327;51.328;12.324;2023-02-11T13:39:15;52965.34;;;-144.47;85.30
64076;BME280;50327;51.328;12.324;2023-02-11T13:41:40;52931.56;;;-144.47;85.37
64076;BME280;50327;51.328;12.324;2023-02-11T13:49:24;52961.34;;;-144.47;85.46
64076;BME280;50327;51.328;12.324;2023-02-11T13:51:50;52951.44;;;-144.47;85.44
64076;BME280;50327;51.328;12.324;2023-02-11T13:57:26;52953.41;;;-144.47;85.75
64076;BME280;50327;51.328;12.324;2023-02-11T13:59:56;52957.38;;;-144.47;85.86
64076;BME280;50327;51.328;12.324;2023-02-11T14:11:09;52947.47;;;-144.47;86.25
64076;BME280;50327;51.328;12.324;2023-02-11T14:16:21;52929.59;;;-144.47;86.34
64076;BME280;50327;51.328;12.324;2023-02-11T14:21:13;52923.63;;;-144.47;86.50
64076;BME280;50327;51.328;12.324;2023-02-11T14:23:40;52923.63;;;-144.47;86.65
64076;BME280;50327;51.328;12.324;2023-02-11T14:28:43;52933.56;;;-144.47;87.01
64076;BME280;50327;51.328;12.324;2023-02-11T14:31:25;52957.38;;;-144.47;87.35
64076;BME280;50327;51.328;12.324;2023-02-11T14:34:05;52959.38;;;-144.47;87.17
64076;BME280;50327;51.328;12.324;2023-02-11T14:36:36;52943.47;;;-144.47;87.24
64076;BME280;50327;51.328;12.324;2023-02-11T14:39:14;52979.22;;;-144.47;87.39
64076;BME280;50327;51.328;12.324;2023-02-11T14:41:45;52935.53;;;-144.47;87.19
64076;BME280;50327;51.328;12.324;2023-02-11T14:44:19;52943.47;;;-144.47;87.52
64076;BME280;50327;51.328;12.324;2023-02-11T14:46:48;52951.44;;;-144.47;87.27
64076;BME280;50327;51.328;12.324;2023-02-11T14:49:42;52957.38;;;-144.47;87.60
64076;BME280;50327;51.328;12.324;2023-02-11T14:54:41;52937.53;;;-144.47;87.89
64076;BME280;50327;51.328;12.324;2023-02-11T14:57:14;52935.53;;;-144.47;88.38
64076;BME280;50327;51.328;12.324;2023-02-11T14:59:58;52933.56;;;-144.47;88.05